Tuotuohe, China
Current Conditions -  °F | °C
As of 7:50 PM on Sunday 23 Nov 2014 (Local Time) from VNKT Reporting Station
Few Clouds Few Clouds  
Wind Chill: 61°   Ceiling: Unl
Heat Index: 61°   Visibility: 4mi
Dew Point: 52°   Wind: 6mph
Humidity: 72%   Direction: 290°WNW
Pressure: 30"   Gusts: NA
Location:  34.22°N, 92.43°E
Report Text: VNKT 231150Z 29005KT 7000 FEW025 16/11 Q1016 NOSIG
Loading
Personal Weather Stations






























Interactive Weather Map New forecast layout! Learn more

10-Day Weather Forecast

Advertisements
Track Severe Weather on mobile